sensor_id;sensor_type;location;lat;lon;timestamp;P1;durP1;ratioP1;P2;durP2;ratioP2
41263;SDS011;26998;48.714;9.414;2023-05-28T00:01:07;7.40;;;5.20;;
41263;SDS011;26998;48.714;9.414;2023-05-28T00:03:34;12.82;;;6.43;;
41263;SDS011;26998;48.714;9.414;2023-05-28T00:06:01;9.35;;;6.15;;
41263;SDS011;26998;48.714;9.414;2023-05-28T00:08:29;10.20;;;6.03;;
41263;SDS011;26998;48.714;9.414;2023-05-28T00:10:55;9.45;;;6.13;;
41263;SDS011;26998;48.714;9.414;2023-05-28T00:13:22;9.10;;;6.60;;
41263;SDS011;26998;48.714;9.414;2023-05-28T00:15:49;11.30;;;6.28;;
41263;SDS011;26998;48.714;9.414;2023-05-28T00:18:16;11.90;;;5.93;;
41263;SDS011;26998;48.714;9.414;2023-05-28T00:20:43;11.40;;;5.82;;
41263;SDS011;26998;48.714;9.414;2023-05-28T00:23:10;9.45;;;5.72;;
41263;SDS011;26998;48.714;9.414;2023-05-28T00:25:36;12.15;;;5.93;;
41263;SDS011;26998;48.714;9.414;2023-05-28T00:28:04;10.70;;;5.50;;
41263;SDS011;26998;48.714;9.414;2023-05-28T00:30:31;12.52;;;5.85;;
41263;SDS011;26998;48.714;9.414;2023-05-28T00:32:58;11.07;;;5.95;;
41263;SDS011;26998;48.714;9.414;2023-05-28T00:35:25;14.57;;;7.03;;
41263;SDS011;26998;48.714;9.414;2023-05-28T00:37:51;10.75;;;5.75;;
41263;SDS011;26998;48.714;9.414;2023-05-28T00:40:20;14.00;;;6.22;;
41263;SDS011;26998;48.714;9.414;2023-05-28T00:42:47;12.07;;;5.40;;
41263;SDS011;26998;48.714;9.414;2023-05-28T00:45:16;8.65;;;5.68;;
41263;SDS011;26998;48.714;9.414;2023-05-28T00:47:43;16.60;;;6.20;;
41263;SDS011;26998;48.714;9.414;2023-05-28T00:50:10;13.98;;;6.30;;
41263;SDS011;26998;48.714;9.414;2023-05-28T00:52:37;11.80;;;5.75;;
41263;SDS011;26998;48.714;9.414;2023-05-28T00:55:05;11.07;;;5.82;;
41263;SDS011;26998;48.714;9.414;2023-05-28T00:57:40;14.70;;;6.40;;
41263;SDS011;26998;48.714;9.414;2023-05-28T01:00:07;13.70;;;6.32;;
41263;SDS011;26998;48.714;9.414;2023-05-28T01:02:35;9.60;;;5.43;;
41263;SDS011;26998;48.714;9.414;2023-05-28T01:05:03;11.57;;;6.20;;
41263;SDS011;26998;48.714;9.414;2023-05-28T01:07:31;14.63;;;6.60;;
41263;SDS011;26998;48.714;9.414;2023-05-28T01:09:58;9.85;;;5.93;;
41263;SDS011;26998;48.714;9.414;2023-05-28T01:12:25;10.75;;;6.05;;
41263;SDS011;26998;48.714;9.414;2023-05-28T01:14:52;12.20;;;6.15;;
41263;SDS011;26998;48.714;9.414;2023-05-28T01:17:22;13.68;;;6.38;;
41263;SDS011;26998;48.714;9.414;2023-05-28T01:19:50;9.52;;;5.50;;
41263;SDS011;26998;48.714;9.414;2023-05-28T01:22:17;12.45;;;5.72;;
41263;SDS011;26998;48.714;9.414;2023-05-28T01:24:44;10.20;;;5.53;;
41263;SDS011;26998;48.714;9.414;2023-05-28T01:27:11;10.93;;;5.90;;
41263;SDS011;26998;48.714;9.414;2023-05-28T01:29:39;8.70;;;5.93;;
41263;SDS011;26998;48.714;9.414;2023-05-28T01:32:07;11.65;;;5.63;;
41263;SDS011;26998;48.714;9.414;2023-05-28T01:34:33;9.00;;;5.63;;
41263;SDS011;26998;48.714;9.414;2023-05-28T01:37:01;12.80;;;6.97;;
41263;SDS011;26998;48.714;9.414;2023-05-28T01:39:33;11.77;;;6.47;;
41263;SDS011;26998;48.714;9.414;2023-05-28T01:42:03;9.77;;;6.03;;
41263;SDS011;26998;48.714;9.414;2023-05-28T01:44:31;9.45;;;5.75;;
41263;SDS011;26998;48.714;9.414;2023-05-28T01:46:58;12.40;;;6.32;;
41263;SDS011;26998;48.714;9.414;2023-05-28T01:49:26;9.27;;;5.55;;
41263;SDS011;26998;48.714;9.414;2023-05-28T01:51:53;10.25;;;6.78;;
41263;SDS011;26998;48.714;9.414;2023-05-28T01:54:21;12.50;;;5.97;;
41263;SDS011;26998;48.714;9.414;2023-05-28T01:56:48;13.48;;;6.70;;
41263;SDS011;26998;48.714;9.414;2023-05-28T01:59:14;13.13;;;6.38;;
41263;SDS011;26998;48.714;9.414;2023-05-28T02:01:41;11.55;;;6.25;;
41263;SDS011;26998;48.714;9.414;2023-05-28T02:04:08;12.38;;;7.05;;
41263;SDS011;26998;48.714;9.414;2023-05-28T02:06:35;18.05;;;6.75;;
41263;SDS011;26998;48.714;9.414;2023-05-28T02:09:02;10.70;;;5.68;;
41263;SDS011;26998;48.714;9.414;2023-05-28T02:11:29;12.73;;;6.25;;
41263;SDS011;26998;48.714;9.414;2023-05-28T02:13:55;9.52;;;5.78;;
41263;SDS011;26998;48.714;9.414;2023-05-28T02:16:22;11.48;;;5.85;;
41263;SDS011;26998;48.714;9.414;2023-05-28T02:18:52;10.10;;;6.00;;
41263;SDS011;26998;48.714;9.414;2023-05-28T02:21:22;11.50;;;6.55;;
41263;SDS011;26998;48.714;9.414;2023-05-28T02:23:50;10.55;;;6.38;;
41263;SDS011;26998;48.714;9.414;2023-05-28T02:26:17;10.57;;;5.53;;
41263;SDS011;26998;48.714;9.414;2023-05-28T02:28:44;11.77;;;5.95;;
41263;SDS011;26998;48.714;9.414;2023-05-28T02:31:11;11.93;;;5.68;;
41263;SDS011;26998;48.714;9.414;2023-05-28T02:33:40;9.27;;;5.82;;
41263;SDS011;26998;48.714;9.414;2023-05-28T02:36:07;15.90;;;6.25;;
41263;SDS011;26998;48.714;9.414;2023-05-28T02:38:35;10.50;;;5.93;;
41263;SDS011;26998;48.714;9.414;2023-05-28T02:41:01;13.60;;;6.60;;
41263;SDS011;26998;48.714;9.414;2023-05-28T02:43:28;12.52;;;5.55;;
41263;SDS011;26998;48.714;9.414;2023-05-28T02:45:55;13.18;;;6.65;;
41263;SDS011;26998;48.714;9.414;2023-05-28T02:48:22;8.82;;;5.63;;
41263;SDS011;26998;48.714;9.414;2023-05-28T02:50:48;12.10;;;6.38;;
41263;SDS011;26998;48.714;9.414;2023-05-28T02:53:20;10.63;;;5.68;;
41263;SDS011;26998;48.714;9.414;2023-05-28T02:55:48;12.35;;;6.68;;
41263;SDS011;26998;48.714;9.414;2023-05-28T02:58:15;11.10;;;5.55;;
41263;SDS011;26998;48.714;9.414;2023-05-28T03:00:42;9.85;;;6.00;;
41263;SDS011;26998;48.714;9.414;2023-05-28T03:03:09;12.32;;;6.70;;
41263;SDS011;26998;48.714;9.414;2023-05-28T03:05:35;11.52;;;6.50;;
41263;SDS011;26998;48.714;9.414;2023-05-28T03:08:02;13.00;;;6.35;;
41263;SDS011;26998;48.714;9.414;2023-05-28T03:10:29;7.63;;;5.93;;
41263;SDS011;26998;48.714;9.414;2023-05-28T03:12:55;11.55;;;6.18;;
41263;SDS011;26998;48.714;9.414;2023-05-28T03:15:22;10.98;;;6.85;;
41263;SDS011;26998;48.714;9.414;2023-05-28T03:17:48;10.35;;;5.30;;
41263;SDS011;26998;48.714;9.414;2023-05-28T03:20:15;15.73;;;6.60;;
41263;SDS011;26998;48.714;9.414;2023-05-28T03:22:42;13.10;;;7.00;;
41263;SDS011;26998;48.714;9.414;2023-05-28T03:25:09;10.68;;;5.38;;
41263;SDS011;26998;48.714;9.414;2023-05-28T03:27:37;11.63;;;6.10;;
41263;SDS011;26998;48.714;9.414;2023-05-28T03:30:05;12.85;;;6.40;;
41263;SDS011;26998;48.714;9.414;2023-05-28T03:32:33;8.73;;;6.53;;
41263;SDS011;26998;48.714;9.414;2023-05-28T03:34:59;8.90;;;6.45;;
41263;SDS011;26998;48.714;9.414;2023-05-28T03:37:26;11.00;;;6.68;;
41263;SDS011;26998;48.714;9.414;2023-05-28T03:39:53;11.73;;;6.82;;
41263;SDS011;26998;48.714;9.414;2023-05-28T03:42:20;9.27;;;6.45;;
41263;SDS011;26998;48.714;9.414;2023-05-28T03:44:47;9.80;;;6.32;;
41263;SDS011;26998;48.714;9.414;2023-05-28T03:47:15;7.47;;;5.63;;
41263;SDS011;26998;48.714;9.414;2023-05-28T03:49:42;12.95;;;6.30;;
41263;SDS011;26998;48.714;9.414;2023-05-28T03:52:08;11.80;;;6.00;;
41263;SDS011;26998;48.714;9.414;2023-05-28T03:54:35;9.52;;;6.20;;
41263;SDS011;26998;48.714;9.414;2023-05-28T03:57:01;11.10;;;6.03;;
41263;SDS011;26998;48.714;9.414;2023-05-28T03:59:28;12.57;;;6.15;;
41263;SDS011;26998;48.714;9.414;2023-05-28T04:01:55;11.95;;;6.45;;
41263;SDS011;26998;48.714;9.414;2023-05-28T04:04:21;11.05;;;6.45;;
41263;SDS011;26998;48.714;9.414;2023-05-28T04:06:48;11.80;;;6.07;;
41263;SDS011;26998;48.714;9.414;2023-05-28T04:09:15;12.45;;;6.60;;
41263;SDS011;26998;48.714;9.414;2023-05-28T04:11:42;13.00;;;6.68;;
41263;SDS011;26998;48.714;9.414;2023-05-28T04:14:09;10.10;;;6.13;;
41263;SDS011;26998;48.714;9.414;2023-05-28T04:16:35;11.45;;;5.95;;
41263;SDS011;26998;48.714;9.414;2023-05-28T04:19:02;13.70;;;7.05;;
41263;SDS011;26998;48.714;9.414;2023-05-28T04:21:29;14.32;;;6.75;;
41263;SDS011;26998;48.714;9.414;2023-05-28T04:23:56;13.05;;;6.63;;
41263;SDS011;26998;48.714;9.414;2023-05-28T04:26:22;7.63;;;6.05;;
41263;SDS011;26998;48.714;9.414;2023-05-28T04:28:49;11.75;;;6.93;;
41263;SDS011;26998;48.714;9.414;2023-05-28T04:31:16;14.98;;;6.90;;
41263;SDS011;26998;48.714;9.414;2023-05-28T04:33:42;10.80;;;6.43;;
41263;SDS011;26998;48.714;9.414;2023-05-28T04:36:09;9.55;;;6.85;;
41263;SDS011;26998;48.714;9.414;2023-05-28T04:38:36;12.85;;;6.80;;
41263;SDS011;26998;48.714;9.414;2023-05-28T04:41:03;9.48;;;6.20;;
41263;SDS011;26998;48.714;9.414;2023-05-28T04:43:29;10.80;;;5.80;;
41263;SDS011;26998;48.714;9.414;2023-05-28T04:45:56;7.55;;;5.30;;
41263;SDS011;26998;48.714;9.414;2023-05-28T04:48:24;8.70;;;5.47;;
41263;SDS011;26998;48.714;9.414;2023-05-28T04:50:53;8.45;;;5.07;;
41263;SDS011;26998;48.714;9.414;2023-05-28T04:53:20;7.90;;;4.88;;
41263;SDS011;26998;48.714;9.414;2023-05-28T04:55:46;10.95;;;5.78;;
41263;SDS011;26998;48.714;9.414;2023-05-28T04:58:13;8.38;;;4.78;;
41263;SDS011;26998;48.714;9.414;2023-05-28T05:00:40;8.40;;;4.45;;
41263;SDS011;26998;48.714;9.414;2023-05-28T05:03:07;9.00;;;5.13;;
41263;SDS011;26998;48.714;9.414;2023-05-28T05:05:33;9.73;;;5.30;;
41263;SDS011;26998;48.714;9.414;2023-05-28T05:08:00;11.02;;;6.18;;
41263;SDS011;26998;48.714;9.414;2023-05-28T05:10:27;7.97;;;5.20;;
41263;SDS011;26998;48.714;9.414;2023-05-28T05:12:53;8.65;;;5.40;;
41263;SDS011;26998;48.714;9.414;2023-05-28T05:15:20;8.60;;;5.13;;
41263;SDS011;26998;48.714;9.414;2023-05-28T05:17:47;8.57;;;4.80;;
41263;SDS011;26998;48.714;9.414;2023-05-28T05:20:13;8.80;;;5.28;;
41263;SDS011;26998;48.714;9.414;2023-05-28T05:22:40;11.00;;;5.35;;
41263;SDS011;26998;48.714;9.414;2023-05-28T05:25:08;8.55;;;5.20;;
41263;SDS011;26998;48.714;9.414;2023-05-28T05:27:35;8.73;;;5.13;;
41263;SDS011;26998;48.714;9.414;2023-05-28T05:30:05;6.82;;;4.80;;
41263;SDS011;26998;48.714;9.414;2023-05-28T05:32:32;9.75;;;5.35;;
41263;SDS011;26998;48.714;9.414;2023-05-28T05:34:59;8.25;;;5.45;;
41263;SDS011;26998;48.714;9.414;2023-05-28T05:37:26;9.98;;;5.60;;
41263;SDS011;26998;48.714;9.414;2023-05-28T05:39:54;8.15;;;5.75;;
41263;SDS011;26998;48.714;9.414;2023-05-28T05:42:21;10.30;;;5.00;;
41263;SDS011;26998;48.714;9.414;2023-05-28T05:44:48;8.38;;;5.40;;
41263;SDS011;26998;48.714;9.414;2023-05-28T05:47:14;13.45;;;5.93;;
41263;SDS011;26998;48.714;9.414;2023-05-28T05:49:41;7.45;;;5.20;;
41263;SDS011;26998;48.714;9.414;2023-05-28T05:52:08;8.82;;;4.72;;
41263;SDS011;26998;48.714;9.414;2023-05-28T05:54:34;10.25;;;5.32;;
41263;SDS011;26998;48.714;9.414;2023-05-28T05:57:01;9.05;;;5.35;;
41263;SDS011;26998;48.714;9.414;2023-05-28T05:59:28;8.18;;;5.32;;
41263;SDS011;26998;48.714;9.414;2023-05-28T06:01:54;7.50;;;5.25;;
41263;SDS011;26998;48.714;9.414;2023-05-28T06:04:24;7.65;;;5.28;;
41263;SDS011;26998;48.714;9.414;2023-05-28T06:06:50;11.13;;;5.95;;
41263;SDS011;26998;48.714;9.414;2023-05-28T06:09:17;8.07;;;5.28;;
41263;SDS011;26998;48.714;9.414;2023-05-28T06:11:44;7.82;;;4.43;;
41263;SDS011;26998;48.714;9.414;2023-05-28T06:14:10;7.90;;;5.07;;
41263;SDS011;26998;48.714;9.414;2023-05-28T06:16:37;6.65;;;5.22;;
41263;SDS011;26998;48.714;9.414;2023-05-28T06:19:03;8.20;;;5.10;;
41263;SDS011;26998;48.714;9.414;2023-05-28T06:21:30;7.45;;;4.80;;
41263;SDS011;26998;48.714;9.414;2023-05-28T06:23:56;9.60;;;4.80;;
41263;SDS011;26998;48.714;9.414;2023-05-28T06:26:23;7.22;;;4.95;;
41263;SDS011;26998;48.714;9.414;2023-05-28T06:28:50;9.82;;;5.90;;
41263;SDS011;26998;48.714;9.414;2023-05-28T06:31:17;6.75;;;5.13;;
41263;SDS011;26998;48.714;9.414;2023-05-28T06:33:43;8.52;;;5.35;;
41263;SDS011;26998;48.714;9.414;2023-05-28T06:36:11;7.47;;;4.90;;
41263;SDS011;26998;48.714;9.414;2023-05-28T06:38:40;7.97;;;5.87;;
41263;SDS011;26998;48.714;9.414;2023-05-28T06:41:06;8.20;;;5.07;;
41263;SDS011;26998;48.714;9.414;2023-05-28T06:43:33;8.68;;;5.05;;
41263;SDS011;26998;48.714;9.414;2023-05-28T06:46:00;8.50;;;5.53;;
41263;SDS011;26998;48.714;9.414;2023-05-28T06:48:27;8.75;;;5.28;;
41263;SDS011;26998;48.714;9.414;2023-05-28T06:50:53;6.32;;;4.68;;
41263;SDS011;26998;48.714;9.414;2023-05-28T06:53:20;9.93;;;5.45;;
41263;SDS011;26998;48.714;9.414;2023-05-28T06:55:46;8.77;;;5.28;;
41263;SDS011;26998;48.714;9.414;2023-05-28T06:58:13;9.98;;;5.60;;
41263;SDS011;26998;48.714;9.414;2023-05-28T07:00:40;6.70;;;4.75;;
41263;SDS011;26998;48.714;9.414;2023-05-28T07:03:06;12.52;;;5.22;;
41263;SDS011;26998;48.714;9.414;2023-05-28T07:05:33;7.90;;;4.60;;
41263;SDS011;26998;48.714;9.414;2023-05-28T07:08:00;10.20;;;5.82;;
41263;SDS011;26998;48.714;9.414;2023-05-28T07:10:26;9.65;;;4.88;;
41263;SDS011;26998;48.714;9.414;2023-05-28T07:12:53;7.68;;;5.07;;
41263;SDS011;26998;48.714;9.414;2023-05-28T07:15:20;10.35;;;5.43;;
41263;SDS011;26998;48.714;9.414;2023-05-28T07:17:47;11.00;;;5.57;;
41263;SDS011;26998;48.714;9.414;2023-05-28T07:20:14;11.00;;;6.13;;
41263;SDS011;26998;48.714;9.414;2023-05-28T07:22:41;8.45;;;4.85;;
41263;SDS011;26998;48.714;9.414;2023-05-28T07:25:07;9.10;;;5.47;;
41263;SDS011;26998;48.714;9.414;2023-05-28T07:27:35;9.90;;;5.13;;
41263;SDS011;26998;48.714;9.414;2023-05-28T07:30:01;12.77;;;5.30;;
41263;SDS011;26998;48.714;9.414;2023-05-28T07:32:29;11.65;;;5.80;;
41263;SDS011;26998;48.714;9.414;2023-05-28T07:34:56;11.63;;;5.80;;
41263;SDS011;26998;48.714;9.414;2023-05-28T07:37:23;16.52;;;6.20;;
41263;SDS011;26998;48.714;9.414;2023-05-28T07:39:49;9.45;;;5.47;;
41263;SDS011;26998;48.714;9.414;2023-05-28T07:42:16;9.73;;;5.38;;
41263;SDS011;26998;48.714;9.414;2023-05-28T07:44:42;12.63;;;5.50;;
41263;SDS011;26998;48.714;9.414;2023-05-28T07:47:09;10.60;;;5.03;;
41263;SDS011;26998;48.714;9.414;2023-05-28T07:49:37;8.60;;;5.05;;
41263;SDS011;26998;48.714;9.414;2023-05-28T07:52:04;7.45;;;4.70;;
41263;SDS011;26998;48.714;9.414;2023-05-28T07:54:30;11.20;;;5.15;;
41263;SDS011;26998;48.714;9.414;2023-05-28T07:56:57;13.00;;;5.80;;
41263;SDS011;26998;48.714;9.414;2023-05-28T07:59:24;8.07;;;4.63;;
41263;SDS011;26998;48.714;9.414;2023-05-28T08:01:53;9.50;;;5.55;;
41263;SDS011;26998;48.714;9.414;2023-05-28T08:04:20;8.73;;;5.05;;
41263;SDS011;26998;48.714;9.414;2023-05-28T08:06:48;8.52;;;5.10;;
41263;SDS011;26998;48.714;9.414;2023-05-28T08:09:17;8.95;;;4.78;;
41263;SDS011;26998;48.714;9.414;2023-05-28T08:11:44;12.43;;;4.70;;
41263;SDS011;26998;48.714;9.414;2023-05-28T08:14:11;10.25;;;4.78;;
41263;SDS011;26998;48.714;9.414;2023-05-28T08:16:37;9.13;;;5.32;;
41263;SDS011;26998;48.714;9.414;2023-05-28T08:19:04;7.75;;;4.68;;
41263;SDS011;26998;48.714;9.414;2023-05-28T08:21:31;12.90;;;5.13;;
41263;SDS011;26998;48.714;9.414;2023-05-28T08:23:58;11.88;;;5.30;;
41263;SDS011;26998;48.714;9.414;2023-05-28T08:26:24;11.82;;;5.20;;
41263;SDS011;26998;48.714;9.414;2023-05-28T08:28:51;13.70;;;5.78;;
41263;SDS011;26998;48.714;9.414;2023-05-28T08:31:18;11.60;;;5.50;;
41263;SDS011;26998;48.714;9.414;2023-05-28T08:33:45;9.43;;;4.70;;
41263;SDS011;26998;48.714;9.414;2023-05-28T08:36:12;9.90;;;4.85;;
41263;SDS011;26998;48.714;9.414;2023-05-28T08:38:40;8.02;;;4.03;;
41263;SDS011;26998;48.714;9.414;2023-05-28T08:41:08;11.68;;;5.25;;
41263;SDS011;26998;48.714;9.414;2023-05-28T08:43:35;9.13;;;4.97;;
41263;SDS011;26998;48.714;9.414;2023-05-28T08:46:02;8.48;;;4.57;;
41263;SDS011;26998;48.714;9.414;2023-05-28T08:48:31;10.82;;;4.82;;
41263;SDS011;26998;48.714;9.414;2023-05-28T08:51:00;10.57;;;4.60;;
41263;SDS011;26998;48.714;9.414;2023-05-28T08:53:28;7.97;;;4.45;;
41263;SDS011;26998;48.714;9.414;2023-05-28T08:56:05;13.13;;;5.28;;
41263;SDS011;26998;48.714;9.414;2023-05-28T08:58:33;11.88;;;4.75;;
41263;SDS011;26998;48.714;9.414;2023-05-28T09:01:03;10.65;;;4.82;;
41263;SDS011;26998;48.714;9.414;2023-05-28T09:03:31;13.95;;;5.07;;
41263;SDS011;26998;48.714;9.414;2023-05-28T09:05:59;8.35;;;4.28;;
41263;SDS011;26998;48.714;9.414;2023-05-28T09:08:26;9.13;;;4.47;;
41263;SDS011;26998;48.714;9.414;2023-05-28T09:10:54;7.22;;;4.88;;
41263;SDS011;26998;48.714;9.414;2023-05-28T09:13:23;10.35;;;4.20;;
41263;SDS011;26998;48.714;9.414;2023-05-28T09:15:52;15.75;;;4.60;;
41263;SDS011;26998;48.714;9.414;2023-05-28T09:18:20;7.10;;;4.60;;
41263;SDS011;26998;48.714;9.414;2023-05-28T09:20:48;9.70;;;4.55;;
41263;SDS011;26998;48.714;9.414;2023-05-28T09:23:16;9.23;;;4.68;;
41263;SDS011;26998;48.714;9.414;2023-05-28T09:25:44;9.15;;;4.60;;
41263;SDS011;26998;48.714;9.414;2023-05-28T09:28:11;11.13;;;5.10;;
41263;SDS011;26998;48.714;9.414;2023-05-28T09:30:39;8.88;;;4.57;;
41263;SDS011;26998;48.714;9.414;2023-05-28T09:33:07;8.90;;;4.72;;
41263;SDS011;26998;48.714;9.414;2023-05-28T09:35:35;11.18;;;4.55;;
41263;SDS011;26998;48.714;9.414;2023-05-28T09:38:06;7.63;;;4.05;;
41263;SDS011;26998;48.714;9.414;2023-05-28T09:40:38;9.57;;;4.63;;
41263;SDS011;26998;48.714;9.414;2023-05-28T09:43:06;9.15;;;4.30;;
41263;SDS011;26998;48.714;9.414;2023-05-28T09:45:33;8.13;;;4.32;;
41263;SDS011;26998;48.714;9.414;2023-05-28T09:48:00;9.13;;;4.38;;
41263;SDS011;26998;48.714;9.414;2023-05-28T09:50:28;9.98;;;4.93;;
41263;SDS011;26998;48.714;9.414;2023-05-28T09:52:58;10.93;;;4.55;;
41263;SDS011;26998;48.714;9.414;2023-05-28T09:55:26;8.77;;;4.97;;
41263;SDS011;26998;48.714;9.414;2023-05-28T09:58:02;11.43;;;4.85;;
41263;SDS011;26998;48.714;9.414;2023-05-28T10:00:34;9.88;;;4.25;;
41263;SDS011;26998;48.714;9.414;2023-05-28T10:06:17;10.25;;;4.30;;
41263;SDS011;26998;48.714;9.414;2023-05-28T10:08:46;9.77;;;5.38;;
41263;SDS011;26998;48.714;9.414;2023-05-28T10:11:15;12.82;;;4.55;;
41263;SDS011;26998;48.714;9.414;2023-05-28T10:13:46;10.27;;;4.20;;
41263;SDS011;26998;48.714;9.414;2023-05-28T10:16:14;8.57;;;4.22;;
41263;SDS011;26998;48.714;9.414;2023-05-28T10:18:41;7.15;;;4.10;;
41263;SDS011;26998;48.714;9.414;2023-05-28T10:21:10;6.30;;;3.60;;
41263;SDS011;26998;48.714;9.414;2023-05-28T10:23:37;7.57;;;3.97;;
41263;SDS011;26998;48.714;9.414;2023-05-28T10:26:06;7.75;;;4.10;;
41263;SDS011;26998;48.714;9.414;2023-05-28T10:28:41;10.75;;;4.68;;
41263;SDS011;26998;48.714;9.414;2023-05-28T10:31:08;9.32;;;4.57;;
41263;SDS011;26998;48.714;9.414;2023-05-28T10:33:42;9.85;;;4.50;;
41263;SDS011;26998;48.714;9.414;2023-05-28T10:36:14;7.20;;;4.18;;
41263;SDS011;26998;48.714;9.414;2023-05-28T10:41:18;10.80;;;3.90;;
41263;SDS011;26998;48.714;9.414;2023-05-28T10:43:47;7.90;;;4.13;;
41263;SDS011;26998;48.714;9.414;2023-05-28T10:46:19;6.97;;;4.43;;
41263;SDS011;26998;48.714;9.414;2023-05-28T10:51:57;10.95;;;4.82;;
41263;SDS011;26998;48.714;9.414;2023-05-28T10:57:14;6.60;;;4.38;;
41263;SDS011;26998;48.714;9.414;2023-05-28T11:02:15;7.80;;;4.32;;
41263;SDS011;26998;48.714;9.414;2023-05-28T11:04:44;11.73;;;4.28;;
41263;SDS011;26998;48.714;9.414;2023-05-28T11:07:11;7.35;;;4.35;;
41263;SDS011;26998;48.714;9.414;2023-05-28T11:09:39;9.30;;;4.40;;
41263;SDS011;26998;48.714;9.414;2023-05-28T11:12:07;10.88;;;5.00;;
41263;SDS011;26998;48.714;9.414;2023-05-28T11:14:34;7.10;;;4.20;;
41263;SDS011;26998;48.714;9.414;2023-05-28T11:17:11;7.70;;;4.07;;
41263;SDS011;26998;48.714;9.414;2023-05-28T11:19:39;5.97;;;4.00;;
41263;SDS011;26998;48.714;9.414;2023-05-28T11:22:13;7.88;;;4.13;;
41263;SDS011;26998;48.714;9.414;2023-05-28T11:24:54;7.00;;;4.50;;
41263;SDS011;26998;48.714;9.414;2023-05-28T11:27:22;7.30;;;4.57;;
41263;SDS011;26998;48.714;9.414;2023-05-28T11:29:50;6.60;;;4.22;;
41263;SDS011;26998;48.714;9.414;2023-05-28T11:32:21;9.98;;;4.57;;
41263;SDS011;26998;48.714;9.414;2023-05-28T11:34:48;7.97;;;3.88;;
41263;SDS011;26998;48.714;9.414;2023-05-28T11:37:22;8.25;;;4.00;;
41263;SDS011;26998;48.714;9.414;2023-05-28T11:39:50;7.65;;;4.13;;
41263;SDS011;26998;48.714;9.414;2023-05-28T11:42:22;11.75;;;4.57;;
41263;SDS011;26998;48.714;9.414;2023-05-28T11:44:50;7.55;;;4.38;;
41263;SDS011;26998;48.714;9.414;2023-05-28T11:47:17;9.77;;;4.40;;
41263;SDS011;26998;48.714;9.414;2023-05-28T11:49:45;9.13;;;4.22;;
41263;SDS011;26998;48.714;9.414;2023-05-28T11:52:12;8.35;;;4.68;;
41263;SDS011;26998;48.714;9.414;2023-05-28T11:54:44;9.30;;;4.68;;
41263;SDS011;26998;48.714;9.414;2023-05-28T11:57:22;8.65;;;4.43;;
41263;SDS011;26998;48.714;9.414;2023-05-28T12:02:21;7.40;;;4.45;;
41263;SDS011;26998;48.714;9.414;2023-05-28T12:04:52;9.15;;;4.68;;
41263;SDS011;26998;48.714;9.414;2023-05-28T12:07:33;8.05;;;4.88;;
41263;SDS011;26998;48.714;9.414;2023-05-28T12:10:05;12.00;;;4.70;;
41263;SDS011;26998;48.714;9.414;2023-05-28T12:12:34;10.15;;;4.63;;
41263;SDS011;26998;48.714;9.414;2023-05-28T12:15:05;9.82;;;4.75;;
41263;SDS011;26998;48.714;9.414;2023-05-28T12:17:36;12.98;;;4.88;;
41263;SDS011;26998;48.714;9.414;2023-05-28T12:22:39;8.05;;;5.03;;
41263;SDS011;26998;48.714;9.414;2023-05-28T12:25:07;9.23;;;4.63;;
41263;SDS011;26998;48.714;9.414;2023-05-28T12:27:35;7.68;;;4.30;;
41263;SDS011;26998;48.714;9.414;2023-05-28T12:30:03;9.50;;;4.57;;
41263;SDS011;26998;48.714;9.414;2023-05-28T12:32:30;6.75;;;4.50;;
41263;SDS011;26998;48.714;9.414;2023-05-28T12:34:56;9.00;;;4.72;;
41263;SDS011;26998;48.714;9.414;2023-05-28T12:37:28;7.25;;;4.00;;
41263;SDS011;26998;48.714;9.414;2023-05-28T12:39:54;8.02;;;4.15;;
41263;SDS011;26998;48.714;9.414;2023-05-28T12:42:24;6.55;;;3.60;;
41263;SDS011;26998;48.714;9.414;2023-05-28T12:44:50;9.57;;;4.40;;
41263;SDS011;26998;48.714;9.414;2023-05-28T12:47:17;7.82;;;4.68;;
41263;SDS011;26998;48.714;9.414;2023-05-28T12:49:44;7.65;;;4.43;;
41263;SDS011;26998;48.714;9.414;2023-05-28T12:52:11;9.13;;;5.80;;
41263;SDS011;26998;48.714;9.414;2023-05-28T12:54:38;7.35;;;5.10;;
41263;SDS011;26998;48.714;9.414;2023-05-28T12:57:05;9.45;;;4.63;;
41263;SDS011;26998;48.714;9.414;2023-05-28T12:59:33;9.75;;;4.43;;
41263;SDS011;26998;48.714;9.414;2023-05-28T13:02:00;7.70;;;4.03;;
41263;SDS011;26998;48.714;9.414;2023-05-28T13:04:28;7.38;;;3.67;;
41263;SDS011;26998;48.714;9.414;2023-05-28T13:06:54;10.20;;;4.63;;
41263;SDS011;26998;48.714;9.414;2023-05-28T13:09:21;9.05;;;4.68;;
41263;SDS011;26998;48.714;9.414;2023-05-28T13:11:48;7.38;;;4.03;;
41263;SDS011;26998;48.714;9.414;2023-05-28T13:14:15;6.18;;;4.03;;
41263;SDS011;26998;48.714;9.414;2023-05-28T13:16:41;9.15;;;4.63;;
41263;SDS011;26998;48.714;9.414;2023-05-28T13:19:08;7.30;;;4.07;;
41263;SDS011;26998;48.714;9.414;2023-05-28T13:21:35;7.97;;;4.00;;
41263;SDS011;26998;48.714;9.414;2023-05-28T13:24:02;6.75;;;4.28;;
41263;SDS011;26998;48.714;9.414;2023-05-28T13:26:31;9.45;;;4.32;;
41263;SDS011;26998;48.714;9.414;2023-05-28T13:29:00;5.83;;;3.80;;
41263;SDS011;26998;48.714;9.414;2023-05-28T13:31:28;8.13;;;4.07;;
41263;SDS011;26998;48.714;9.414;2023-05-28T13:33:55;6.55;;;3.83;;
41263;SDS011;26998;48.714;9.414;2023-05-28T13:36:24;9.30;;;4.28;;
41263;SDS011;26998;48.714;9.414;2023-05-28T13:38:51;9.38;;;4.40;;
41263;SDS011;26998;48.714;9.414;2023-05-28T13:41:18;9.93;;;5.65;;
41263;SDS011;26998;48.714;9.414;2023-05-28T13:43:45;7.90;;;4.57;;
41263;SDS011;26998;48.714;9.414;2023-05-28T13:46:12;6.82;;;4.40;;
41263;SDS011;26998;48.714;9.414;2023-05-28T13:48:40;8.27;;;4.50;;
41263;SDS011;26998;48.714;9.414;2023-05-28T13:51:08;8.55;;;4.57;;
41263;SDS011;26998;48.714;9.414;2023-05-28T13:53:35;6.82;;;4.50;;
41263;SDS011;26998;48.714;9.414;2023-05-28T13:56:02;9.10;;;4.57;;
41263;SDS011;26998;48.714;9.414;2023-05-28T13:58:28;6.40;;;4.20;;
41263;SDS011;26998;48.714;9.414;2023-05-28T14:00:55;5.97;;;4.45;;
41263;SDS011;26998;48.714;9.414;2023-05-28T14:03:21;9.13;;;4.75;;
41263;SDS011;26998;48.714;9.414;2023-05-28T14:05:48;6.93;;;4.20;;
41263;SDS011;26998;48.714;9.414;2023-05-28T14:08:15;8.02;;;4.43;;
41263;SDS011;26998;48.714;9.414;2023-05-28T14:10:41;8.57;;;4.90;;
41263;SDS011;26998;48.714;9.414;2023-05-28T14:13:08;9.32;;;4.50;;
41263;SDS011;26998;48.714;9.414;2023-05-28T14:15:36;7.30;;;4.32;;
41263;SDS011;26998;48.714;9.414;2023-05-28T14:18:06;7.22;;;4.70;;
41263;SDS011;26998;48.714;9.414;2023-05-28T14:20:33;6.40;;;4.88;;
41263;SDS011;26998;48.714;9.414;2023-05-28T14:23:00;6.82;;;4.68;;
41263;SDS011;26998;48.714;9.414;2023-05-28T14:25:28;7.90;;;5.05;;
41263;SDS011;26998;48.714;9.414;2023-05-28T14:27:55;12.40;;;5.22;;
41263;SDS011;26998;48.714;9.414;2023-05-28T14:30:36;16.63;;;11.38;;
41263;SDS011;26998;48.714;9.414;2023-05-28T14:33:04;9.73;;;5.05;;
41263;SDS011;26998;48.714;9.414;2023-05-28T14:35:31;10.07;;;4.25;;
41263;SDS011;26998;48.714;9.414;2023-05-28T14:37:58;8.82;;;4.47;;
41263;SDS011;26998;48.714;9.414;2023-05-28T14:40:24;17.63;;;4.82;;
41263;SDS011;26998;48.714;9.414;2023-05-28T14:42:51;7.30;;;4.70;;
41263;SDS011;26998;48.714;9.414;2023-05-28T14:45:18;9.02;;;5.45;;
41263;SDS011;26998;48.714;9.414;2023-05-28T14:47:45;10.05;;;4.57;;
41263;SDS011;26998;48.714;9.414;2023-05-28T14:50:12;7.85;;;5.38;;
41263;SDS011;26998;48.714;9.414;2023-05-28T14:52:39;8.98;;;5.25;;
41263;SDS011;26998;48.714;9.414;2023-05-28T14:55:06;8.73;;;5.15;;
41263;SDS011;26998;48.714;9.414;2023-05-28T14:57:32;6.35;;;4.55;;
41263;SDS011;26998;48.714;9.414;2023-05-28T15:00:00;8.43;;;4.75;;
41263;SDS011;26998;48.714;9.414;2023-05-28T15:02:28;5.78;;;4.57;;
41263;SDS011;26998;48.714;9.414;2023-05-28T15:04:55;8.95;;;4.32;;